Time;durP1;ratioP1;P1;durP2;ratioP2;P2;SDS_P1;SDS_P2;PMS_P1;PMS_P2;Temp;Humidity;BMP_temperature;BMP_pressure;BME280_temperature;BME280_humidity;BME280_pressure;Samples;Min_cycle;Max_cycle;Signal;HPM_P1;HPM_P2
2022/10/22 07:04:59;;;;;;;49.60;22.80;;;;;;;22.71;36.42;100618.63;3127886;28;20366;-68
2022/10/22 07:06:31;;;;;;;;;;;;;;;22.91;36.22;100612.50;3110209;28;20050;-72
2022/10/22 07:08:03;;;;;;;43.92;23.88;;;;;;;22.89;35.44;100618.91;3106085;28;20332;-68
2022/10/22 07:09:35;;;;;;;23.55;12.00;;;;;;;22.93;34.54;100615.03;3099935;28;20128;-69
2022/10/22 07:11:09;;;;;;;20.17;11.75;;;;;;;23.13;34.25;100614.25;3097886;28;20420;-64
2022/10/22 07:12:41;;;;;;;15.35;9.85;;;;;;;23.66;33.55;100609.72;3097800;28;20080;-65
2022/10/22 07:14:13;;;;;;;16.30;8.32;;;;;;;24.47;32.33;100599.91;3100933;28;20050;-67
2022/10/22 07:15:45;;;;;;;16.05;8.45;;;;;;;25.27;31.32;100603.22;3100962;28;20222;-66
2022/10/22 07:17:17;;;;;;;20.02;10.43;;;;;;;25.49;30.30;100604.66;3100406;28;20069;-68
2022/10/22 07:18:49;;;;;;;21.05;10.25;;;;;;;25.52;30.13;100602.53;3100650;28;20050;-67
2022/10/22 07:20:23;;;;;;;16.90;9.65;;;;;;;25.41;29.49;100602.75;3100824;28;20053;-67
2022/10/22 07:21:55;;;;;;;16.67;8.52;;;;;;;25.06;30.17;100603.38;3105644;28;20057;-68
2022/10/22 07:23:27;;;;;;;21.20;9.10;;;;;;;24.80;30.24;100603.13;3105141;28;20085;-67
2022/10/22 07:24:59;;;;;;;17.05;8.82;;;;;;;24.35;29.65;100601.00;3105236;28;20578;-66
2022/10/22 07:26:31;;;;;;;15.68;9.45;;;;;;;23.65;30.23;100587.63;3105881;28;20058;-65
2022/10/22 07:28:03;;;;;;;12.70;8.80;;;;;;;23.76;30.80;100600.84;3103498;28;20236;-64
2022/10/22 07:29:35;;;;;;;18.02;9.65;;;;;;;23.98;30.50;100596.28;3096964;28;20050;-66
2022/10/22 07:31:07;;;;;;;25.13;9.18;;;;;;;24.23;30.08;100597.59;3099320;28;20076;-65
2022/10/22 07:32:39;;;;;;;16.15;8.48;;;;;;;24.58;29.89;100591.78;3105609;28;20053;-64
2022/10/22 07:34:11;;;;;;;14.73;8.70;;;;;;;24.89;29.81;100586.28;3105220;28;20050;-68
2022/10/22 07:35:43;;;;;;;17.80;8.98;;;;;;;25.21;29.50;100587.78;3105509;28;20108;-68
2022/10/22 07:37:15;;;;;;;13.85;8.73;;;;;;;25.38;29.10;100579.03;3109430;28;20075;-67
2022/10/22 07:38:48;;;;;;;15.52;8.75;;;;;;;25.63;28.15;100586.34;3111381;28;20515;-66
2022/10/22 07:40:20;;;;;;;13.88;9.32;;;;;;;25.80;28.24;100581.22;3103826;28;20100;-65
2022/10/22 07:41:52;;;;;;;26.42;14.13;;;;;;;26.15;27.90;100583.16;3103291;28;20097;-66
2022/10/22 07:43:24;;;;;;;21.58;13.27;;;;;;;26.55;27.82;100584.56;3105225;28;20046;-66
2022/10/22 07:44:56;;;;;;;20.70;13.65;;;;;;;26.99;27.27;100598.75;3105046;28;20105;-67
2022/10/22 07:46:28;;;;;;;19.35;10.13;;;;;;;27.33;26.81;100591.81;3101522;28;20543;-69
2022/10/22 07:48:00;;;;;;;15.10;8.98;;;;;;;27.51;26.68;100579.22;3105131;28;20053;-66
2022/10/22 07:49:32;;;;;;;15.35;9.10;;;;;;;27.78;26.37;100598.72;3105237;28;20050;-67
2022/10/22 07:51:06;;;;;;;13.63;9.27;;;;;;;28.05;25.99;100593.16;3105727;28;20120;-65
2022/10/22 07:52:37;;;;;;;16.20;9.02;;;;;;;28.31;25.79;100592.22;3109287;28;20058;-66
2022/10/22 07:54:09;;;;;;;19.70;9.35;;;;;;;28.36;25.53;100589.84;3105452;28;20080;-66
2022/10/22 07:55:41;;;;;;;17.30;9.35;;;;;;;28.23;25.18;100593.03;3105750;28;20062;-67
2022/10/22 07:57:13;;;;;;;15.57;8.45;;;;;;;28.11;25.38;100588.97;3105191;28;20057;-66
2022/10/22 07:58:45;;;;;;;15.82;8.13;;;;;;;28.00;25.52;100586.59;3105020;28;20046;-69
2022/10/22 08:00:17;;;;;;;20.83;9.55;;;;;;;27.90;25.36;100579.56;3105097;28;20054;-67
2022/10/22 08:01:49;;;;;;;13.30;8.52;;;;;;;27.92;25.37;100583.91;3105393;28;20056;-71
2022/10/22 08:03:20;;;;;;;18.58;8.98;;;;;;;28.05;25.46;100584.28;3105191;28;20054;-69
2022/10/22 08:04:52;;;;;;;14.38;7.20;;;;;;;28.10;25.15;100585.47;3105358;28;20060;-70
2022/10/22 08:06:25;;;;;;;43.33;25.20;;;;;;;27.98;25.26;100580.56;3103446;28;20113;-69
2022/10/22 08:07:57;;;;;;;18.55;9.80;;;;;;;27.87;25.54;100565.66;3102681;28;20108;-67
2022/10/22 08:09:29;;;;;;;19.70;12.60;;;;;;;27.90;25.42;100576.88;3104948;28;20054;-66
2022/10/22 08:11:01;;;;;;;13.25;8.70;;;;;;;27.80;25.30;100580.69;3104993;28;20131;-69
2022/10/22 08:12:33;;;;;;;18.65;8.60;;;;;;;27.47;25.17;100577.84;3105104;28;20062;-67
2022/10/22 08:14:05;;;;;;;13.80;7.20;;;;;;;27.05;25.57;100589.28;3104836;28;20335;-67
2022/10/22 08:15:37;;;;;;;13.05;7.88;;;;;;;26.82;25.93;100567.56;3100151;28;20065;-67
2022/10/22 08:17:09;;;;;;;13.40;6.88;;;;;;;26.95;26.16;100581.38;3097076;28;20432;-72
2022/10/22 08:18:41;;;;;;;18.48;8.05;;;;;;;27.11;26.20;100582.47;3096667;28;20058;-67
2022/10/22 08:20:12;;;;;;;14.98;7.40;;;;;;;27.09;25.75;100571.09;3096885;28;20054;-66
2022/10/22 08:21:46;;;;;;;22.40;7.55;;;;;;;26.74;25.83;100572.88;3096757;28;20050;-64
2022/10/22 08:23:18;;;;;;;24.05;8.75;;;;;;;26.33;26.09;100577.81;3096717;28;20054;-65
2022/10/22 08:24:50;;;;;;;19.83;7.80;;;;;;;26.36;26.87;100579.34;3097103;28;20050;-65
2022/10/22 08:26:22;;;;;;;16.20;6.35;;;;;;;26.55;26.28;100588.06;3095566;28;20046;-66
2022/10/22 08:27:53;;;;;;;25.70;7.95;;;;;;;26.74;26.04;100581.72;3094088;28;20054;-66
2022/10/22 08:29:26;;;;;;;12.90;5.93;;;;;;;26.92;25.81;100581.69;3094901;28;20832;-66
2022/10/22 08:30:58;;;;;;;13.23;6.28;;;;;;;26.85;25.62;100585.97;3095473;28;20073;-66
2022/10/22 08:32:31;;;;;;;17.38;7.22;;;;;;;26.67;26.02;100582.47;3094775;28;20050;-66
2022/10/22 08:34:04;;;;;;;11.98;6.43;;;;;;;26.70;25.96;100572.31;3094787;28;20057;-65
2022/10/22 08:35:36;;;;;;;14.98;6.32;;;;;;;26.72;25.93;100569.50;3094801;28;20089;-66
2022/10/22 08:37:13;;;;;;;9.18;5.68;;;;;;;26.63;25.60;100571.28;3096046;28;20062;-66
2022/10/22 08:38:44;;;;;;;25.15;7.38;;;;;;;26.58;25.86;100576.22;3095911;28;20078;-66
2022/10/22 08:40:24;;;;;;;7.85;5.75;;;;;;;26.65;26.09;100582.66;3096087;28;20152;-66
2022/10/22 08:42:05;;;;;;;8.65;5.72;;;;;;;26.67;25.98;100572.63;3096992;28;20117;-66
2022/10/22 08:44:26;;;;;;;12.57;5.57;;;;;;;26.74;25.84;100572.88;3096635;28;20582;-66
2022/10/22 08:46:11;;;;;;;10.57;5.78;;;;;;;26.76;26.08;100573.53;3091666;28;20101;-65
2022/10/22 08:48:10;;;;;;;12.85;6.30;;;;;;;26.69;25.75;100569.81;3084845;28;20116;-65
2022/10/22 08:49:43;;;;;;;11.48;5.97;;;;;;;26.46;26.16;100569.41;3084526;28;20050;-65
2022/10/22 08:51:17;;;;;;;12.45;6.00;;;;;;;26.37;25.94;100571.16;3096556;28;20140;-65
2022/10/22 08:52:57;;;;;;;10.00;5.75;;;;;;;26.42;26.16;100566.22;3109041;28;20526;-66
2022/10/22 08:54:40;;;;;;;11.43;6.78;;;;;;;26.44;26.16;100563.38;3093783;28;20058;-64
2022/10/22 08:56:14;;;;;;;19.45;7.05;;;;;;;26.38;25.99;100551.47;3084650;28;20047;-64
2022/10/22 08:57:51;;;;;;;13.45;6.93;;;;;;;26.42;26.14;100546.69;3096191;28;20050;-63
2022/10/22 08:59:31;;;;;;;10.15;6.25;;;;;;;26.49;26.05;100545.06;3096242;28;20058;-65
2022/10/22 09:01:09;;;;;;;14.18;6.43;;;;;;;26.59;26.45;100547.69;3096648;28;20046;-64
2022/10/22 09:02:52;;;;;;;15.45;6.07;;;;;;;26.68;26.21;100544.94;3096473;28;20081;-65
2022/10/22 09:04:30;;;;;;;14.90;6.25;;;;;;;26.77;26.23;100540.50;3096067;28;20141;-64
2022/10/22 09:06:09;;;;;;;12.82;6.55;;;;;;;26.75;25.88;100534.47;3096728;28;20104;-64
2022/10/22 09:07:47;;;;;;;15.02;5.95;;;;;;;26.76;25.77;100528.94;3091505;28;20057;-64
2022/10/22 09:09:21;;;;;;;10.25;6.35;;;;;;;26.80;26.01;100534.84;3096370;28;20047;-64
2022/10/22 09:10:58;;;;;;;11.98;6.13;;;;;;;26.68;25.85;100526.25;3095819;28;20065;-64
2022/10/22 09:12:30;;;;;;;12.50;6.35;;;;;;;26.67;25.89;100531.72;3095422;28;20104;-65
2022/10/22 09:14:03;;;;;;;10.13;6.30;;;;;;;26.68;25.64;100525.38;3095659;28;20058;-65
2022/10/22 09:15:34;;;;;;;10.07;6.57;;;;;;;26.59;25.89;100526.31;3094608;28;20046;-65
2022/10/22 09:17:15;;;;;;;11.75;7.05;;;;;;;26.47;25.65;100529.22;3095158;28;20054;-65
2022/10/22 09:18:58;;;;;;;14.18;6.18;;;;;;;26.30;26.01;100516.72;3095620;28;20674;-65
2022/10/22 09:20:38;;;;;;;11.32;6.45;;;;;;;26.37;26.08;100528.44;3095284;28;20439;-64
2022/10/22 09:22:21;;;;;;;14.35;6.57;;;;;;;26.39;26.03;100523.81;3095462;28;20097;-65
2022/10/22 09:24:03;;;;;;;8.68;6.15;;;;;;;26.44;26.07;100520.66;3095328;28;20054;-65
2022/10/22 09:25:37;;;;;;;11.43;6.72;;;;;;;26.32;25.86;100512.03;3095152;28;20168;-65
2022/10/22 09:27:12;;;;;;;11.30;6.35;;;;;;;26.29;26.45;100507.84;3095607;28;20052;-65
2022/10/22 09:28:50;;;;;;;11.77;6.40;;;;;;;26.45;26.51;100512.50;3095073;28;20578;-64
2022/10/22 09:30:23;;;;;;;10.45;7.28;;;;;;;26.44;26.00;100509.97;3095492;28;20050;-65
2022/10/22 09:31:55;;;;;;;15.40;6.65;;;;;;;26.37;26.47;100506.25;3096071;28;20452;-65
2022/10/22 09:33:29;;;;;;;12.68;6.93;;;;;;;26.25;26.11;100506.47;3096349;28;20061;-64
2022/10/22 09:35:01;;;;;;;11.55;6.57;;;;;;;26.14;26.25;100519.22;3095912;28;20050;-65
2022/10/22 09:36:34;;;;;;;12.05;6.10;;;;;;;26.09;26.41;100520.53;3092866;28;20051;-65
2022/10/22 09:38:08;;;;;;;12.13;6.88;;;;;;;26.06;26.74;100520.00;3095913;28;20054;-65
2022/10/22 09:39:44;;;;;;;12.02;6.32;;;;;;;26.02;26.42;100515.94;3096067;28;20050;-65
2022/10/22 09:41:18;;;;;;;11.00;5.72;;;;;;;26.06;26.33;100518.16;3096117;28;20088;-65
2022/10/22 09:42:50;;;;;;;8.57;6.32;;;;;;;25.88;26.40;100506.63;3095748;28;20054;-65
2022/10/22 09:44:22;;;;;;;13.05;7.22;;;;;;;25.71;26.69;100499.44;3096092;28;20053;-65
2022/10/22 09:45:59;;;;;;;13.43;6.78;;;;;;;25.59;26.51;100502.28;3096096;28;20051;-65
2022/10/22 09:47:36;;;;;;;14.48;6.22;;;;;;;25.32;26.60;100478.28;3095854;28;20577;-65
2022/10/22 09:49:12;;;;;;;15.30;6.70;;;;;;;25.14;26.84;100487.09;3095934;28;20516;-65
2022/10/22 09:50:47;;;;;;;13.63;6.85;;;;;;;24.92;27.55;100479.41;3095730;28;20057;-65
2022/10/22 09:52:27;;;;;;;17.38;6.30;;;;;;;24.79;27.60;100474.41;3104965;28;20081;-65
2022/10/22 09:54:02;;;;;;;9.60;6.25;;;;;;;24.79;27.83;100473.56;3097683;28;20082;-64
2022/10/22 09:55:34;;;;;;;17.45;6.38;;;;;;;24.78;27.79;100469.22;3095827;28;20047;-65
2022/10/22 09:57:15;;;;;;;11.95;6.45;;;;;;;24.79;27.74;100462.91;3095659;28;20482;-64
2022/10/22 09:58:50;;;;;;;12.50;5.82;;;;;;;24.72;28.07;100466.16;3095594;28;20247;-65
2022/10/22 10:00:23;;;;;;;8.18;5.95;;;;;;;24.59;28.41;100460.31;3095843;28;20124;-65
2022/10/22 10:02:00;;;;;;;13.07;6.38;;;;;;;24.44;28.48;100454.59;3095637;28;20073;-64
2022/10/22 10:03:33;;;;;;;15.77;6.45;;;;;;;24.30;28.52;100469.13;3095688;28;20050;-64
2022/10/22 10:05:06;;;;;;;14.00;7.03;;;;;;;23.95;28.42;100432.47;3095740;28;20083;-64
2022/10/22 10:06:39;;;;;;;17.48;7.03;;;;;;;23.95;28.79;100455.56;3091997;28;20047;-64
2022/10/22 10:08:15;;;;;;;18.33;7.03;;;;;;;23.77;28.96;100437.63;3094845;28;20124;-64
2022/10/22 10:09:47;;;;;;;13.88;6.53;;;;;;;23.79;28.98;100446.31;3095712;28;20066;-64
2022/10/22 10:11:28;;;;;;;10.10;6.68;;;;;;;23.82;28.91;100453.19;3095510;28;20050;-64
2022/10/22 10:13:13;;;;;;;17.92;6.82;;;;;;;23.97;29.22;100445.63;3095778;28;20539;-64
2022/10/22 10:14:54;;;;;;;15.30;7.85;;;;;;;24.14;29.25;100444.09;3095779;28;20050;-65
2022/10/22 10:16:38;;;;;;;15.90;6.55;;;;;;;24.34;29.20;100434.25;3095310;28;20551;-65
2022/10/22 10:18:22;;;;;;;14.63;7.28;;;;;;;24.51;28.90;100449.53;3095495;28;20054;-65
2022/10/22 10:20:03;;;;;;;18.45;7.25;;;;;;;24.58;28.76;100441.78;3095443;28;20050;-65
2022/10/22 10:21:46;;;;;;;12.02;7.47;;;;;;;24.63;28.36;100445.72;3095403;28;20548;-65
2022/10/22 10:23:26;;;;;;;19.23;7.35;;;;;;;24.72;28.73;100436.00;3095806;28;20054;-65
2022/10/22 10:25:28;;;;;;;21.00;7.13;;;;;;;24.81;28.34;100436.97;3095334;28;20136;-65
2022/10/22 10:27:05;;;;;;;19.65;7.43;;;;;;;24.77;28.70;100430.25;3095248;28;20046;-65
2022/10/22 10:28:52;;;;;;;12.68;7.15;;;;;;;24.58;28.33;100424.03;3095376;28;20121;-64
2022/10/22 10:30:24;;;;;;;10.55;6.50;;;;;;;24.48;28.67;100425.84;3091941;28;20066;-66
2022/10/22 10:32:12;;;;;;;19.37;7.20;;;;;;;24.43;28.25;100428.09;3096012;28;20124;-66
2022/10/22 10:33:49;;;;;;;19.23;7.10;;;;;;;24.29;28.95;100422.22;3095594;28;20373;-65
2022/10/22 10:35:25;;;;;;;17.65;7.50;;;;;;;24.23;28.77;100420.13;3095417;28;20058;-65
2022/10/22 10:37:12;;;;;;;13.68;7.30;;;;;;;24.03;28.96;100416.66;3094028;28;20047;-64
2022/10/22 10:38:53;;;;;;;16.27;7.50;;;;;;;23.91;29.08;100408.97;3094605;28;20058;-65
2022/10/22 10:40:42;;;;;;;12.80;7.25;;;;;;;23.88;28.94;100403.91;3095351;28;20057;-64
2022/10/22 10:42:21;;;;;;;14.15;6.90;;;;;;;23.90;29.34;100397.47;3100675;28;20056;-69
2022/10/22 10:44:12;;;;;;;17.83;6.15;;;;;;;23.83;29.29;100397.19;3100806;28;20124;-71
2022/10/22 10:45:54;;;;;;;11.65;6.18;;;;;;;23.71;29.39;100394.81;3095563;28;20448;-68
2022/10/22 10:48:01;;;;;;;14.32;6.85;;;;;;;23.55;29.45;100395.34;3083602;28;20069;-63
2022/10/22 10:49:35;;;;;;;12.52;5.80;;;;;;;23.48;29.55;100388.88;3054446;28;20539;-65
2022/10/22 10:51:18;;;;;;;14.32;6.22;;;;;;;23.47;29.44;100377.41;3095145;28;20054;-64
2022/10/22 10:52:58;;;;;;;10.25;6.00;;;;;;;23.43;29.06;100376.03;3084597;28;20051;-65
2022/10/22 10:54:43;;;;;;;10.52;5.55;;;;;;;23.29;29.17;100363.97;3095479;28;20771;-63
2022/10/22 10:56:37;;;;;;;10.05;5.68;;;;;;;23.24;29.66;100362.69;3095154;28;20436;-65
2022/10/22 10:58:18;;;;;;;14.27;5.97;;;;;;;23.31;29.49;100362.00;3086322;28;20046;-66
2022/10/22 11:00:02;;;;;;;20.88;6.38;;;;;;;23.45;29.49;100362.56;3095483;28;20062;-66
2022/10/22 11:01:41;;;;;;;15.02;6.05;;;;;;;23.58;29.44;100365.81;3095503;28;20046;-66
2022/10/22 11:04:03;;;;;;;16.75;6.82;;;;;;;23.53;29.27;100362.72;3083487;28;20141;-67
2022/10/22 11:05:39;;;;;;;11.90;6.50;;;;;;;23.30;29.63;100359.47;3038204;29;20144;-67
2022/10/22 11:07:16;;;;;;;10.70;6.65;;;;;;;23.26;29.60;100348.28;3049916;28;20047;-67
2022/10/22 11:08:55;;;;;;;13.50;7.15;;;;;;;23.20;29.83;100351.50;3073291;28;20121;-67
2022/10/22 11:10:31;;;;;;;12.70;6.93;;;;;;;23.05;30.11;100348.41;3071633;28;20133;-67
2022/10/22 11:12:10;;;;;;;25.08;8.13;;;;;;;23.01;30.21;100348.78;3073954;28;20200;-68
2022/10/22 11:13:49;;;;;;;26.63;15.85;;;;;;;23.00;29.97;100350.59;3077596;28;20062;-66
2022/10/22 11:15:28;;;;;;;29.65;19.23;;;;;;;23.00;30.18;100331.19;3077687;28;20061;-68
2022/10/22 11:17:04;;;;;;;31.02;21.88;;;;;;;23.05;30.34;100323.66;3077852;28;20199;-70
2022/10/22 11:18:40;;;;;;;13.23;6.30;;;;;;;23.06;30.46;100320.84;3077548;28;20054;-68
2022/10/22 11:20:18;;;;;;;113.38;61.28;;;;;;;23.09;30.29;100322.38;3078192;28;20113;-66
2022/10/22 11:21:56;;;;;;;24.60;9.52;;;;;;;23.07;30.08;100317.22;3077834;28;20054;-68
2022/10/22 11:23:32;;;;;;;22.55;10.98;;;;;;;23.02;30.13;100311.47;3077658;28;20109;-67
2022/10/22 11:25:17;;;;;;;16.90;8.38;;;;;;;22.77;30.19;100315.41;3077064;28;20061;-67
2022/10/22 11:26:53;;;;;;;13.40;6.20;;;;;;;22.61;30.24;100312.44;3076877;28;20118;-67
2022/10/22 11:28:32;;;;;;;13.20;6.70;;;;;;;22.61;30.22;100307.16;3077189;28;20133;-69
2022/10/22 11:30:06;;;;;;;17.05;6.38;;;;;;;22.58;30.14;100308.25;3072479;28;20115;-71
2022/10/22 11:31:41;;;;;;;9.68;5.45;;;;;;;22.59;30.36;100317.03;3076474;28;20138;-71
2022/10/22 11:33:18;;;;;;;10.85;5.22;;;;;;;22.53;29.99;100312.28;3075693;28;20077;-67
2022/10/22 11:34:54;;;;;;;10.45;5.15;;;;;;;22.49;30.23;100301.94;3077777;28;20687;-67
2022/10/22 11:36:29;;;;;;;13.60;5.05;;;;;;;22.35;30.10;100304.94;3077347;28;20137;-67
2022/10/22 11:38:05;;;;;;;7.75;5.13;;;;;;;22.26;30.61;100303.91;3077096;28;20069;-64
2022/10/22 11:39:42;;;;;;;20.45;10.70;;;;;;;22.30;30.19;100301.81;3076361;28;20051;-67
2022/10/22 11:41:19;;;;;;;9.85;5.47;;;;;;;22.25;30.41;100288.97;3076743;28;20529;-66
2022/10/22 11:42:54;;;;;;;13.57;6.97;;;;;;;22.23;30.62;100279.47;3076688;28;20106;-66
2022/10/22 11:44:29;;;;;;;12.60;6.25;;;;;;;22.37;30.30;100289.72;3074498;28;20166;-66
2022/10/22 11:46:24;;;;;;;10.75;5.35;;;;;;;22.46;30.25;100288.94;3076896;28;20276;-65
2022/10/22 11:48:07;;;;;;;11.95;5.97;;;;;;;22.47;30.46;100282.63;3076765;28;20090;-66
2022/10/22 11:49:44;;;;;;;11.70;5.28;;;;;;;22.42;30.48;100279.56;3073054;28;20642;-66
2022/10/22 11:51:30;;;;;;;8.60;5.25;;;;;;;22.35;30.44;100283.69;3077429;28;20130;-66
2022/10/22 11:53:04;;;;;;;17.27;5.95;;;;;;;22.36;30.59;100280.09;3078497;28;20078;-65
2022/10/22 11:54:42;;;;;;;10.90;5.45;;;;;;;22.39;30.78;100279.81;3077649;28;20054;-65
2022/10/22 11:56:25;;;;;;;10.73;5.10;;;;;;;22.49;30.51;100274.56;3080009;28;20138;-66
2022/10/22 11:58:00;;;;;;;9.98;5.63;;;;;;;22.55;30.89;100271.34;3079109;28;20055;-66
2022/10/22 11:59:39;;;;;;;14.13;5.22;;;;;;;22.62;30.83;100263.69;3078755;28;20057;-65
2022/10/22 12:01:29;;;;;;;12.13;5.40;;;;;;;22.64;30.26;100267.88;3080280;28;20054;-65
2022/10/22 12:03:16;;;;;;;15.38;5.53;;;;;;;22.70;30.60;100266.50;3079562;28;20512;-66
2022/10/22 12:04:48;;;;;;;13.60;5.40;;;;;;;22.74;30.27;100267.06;3089241;28;20068;-66
2022/10/22 12:06:23;;;;;;;12.52;5.28;;;;;;;22.76;30.20;100259.81;3091354;28;20046;-66
2022/10/22 12:07:58;;;;;;;18.75;7.25;;;;;;;22.76;30.55;100265.13;3091752;28;20503;-66
2022/10/22 12:09:33;;;;;;;14.07;4.70;;;;;;;22.79;30.53;100259.53;3092276;28;20451;-65
2022/10/22 12:11:13;;;;;;;12.02;5.40;;;;;;;22.82;29.83;100260.09;3089767;28;20082;-66
2022/10/22 12:12:55;;;;;;;22.75;6.20;;;;;;;22.82;30.06;100252.13;3092146;28;20062;-66
2022/10/22 12:14:32;;;;;;;11.38;4.15;;;;;;;22.77;29.99;100249.03;3091720;28;20168;-66
2022/10/22 12:16:06;;;;;;;20.25;5.50;;;;;;;22.74;30.30;100240.53;3091771;28;20077;-66
2022/10/22 12:17:38;;;;;;;11.80;5.57;;;;;;;22.70;29.99;100240.78;3089341;28;20393;-67
2022/10/22 12:19:16;;;;;;;11.80;5.53;;;;;;;22.74;29.74;100235.22;3091675;28;20054;-66
2022/10/22 12:20:50;;;;;;;7.43;4.80;;;;;;;22.78;30.27;100237.47;3092164;28;20136;-66
2022/10/22 12:22:26;;;;;;;12.43;5.30;;;;;;;22.85;30.05;100237.75;3091370;28;20050;-66
2022/10/22 12:23:58;;;;;;;16.73;5.72;;;;;;;22.92;30.04;100242.38;3091981;28;20050;-66
2022/10/22 12:25:32;;;;;;;13.52;5.53;;;;;;;23.00;29.77;100240.88;3091928;28;20062;-66
2022/10/22 12:27:06;;;;;;;12.70;5.75;;;;;;;23.07;30.12;100234.00;3091291;28;20104;-66
2022/10/22 12:28:40;;;;;;;13.38;5.78;;;;;;;23.13;30.03;100236.97;3089181;28;20093;-66
2022/10/22 12:30:20;;;;;;;11.88;5.05;;;;;;;23.16;29.96;100228.72;3090103;28;20082;-67
2022/10/22 12:31:52;;;;;;;12.90;6.18;;;;;;;23.12;29.75;100227.31;3091879;28;20081;-66
2022/10/22 12:33:25;;;;;;;10.68;5.80;;;;;;;23.04;29.71;100229.84;3089041;28;20054;-66
2022/10/22 12:35:05;;;;;;;13.52;5.72;;;;;;;23.01;29.74;100223.94;3091319;28;20465;-66
2022/10/22 12:36:37;;;;;;;13.55;5.40;;;;;;;22.98;29.86;100218.91;3091400;28;20609;-66
2022/10/22 12:38:15;;;;;;;9.82;5.80;;;;;;;23.03;29.71;100227.31;3091340;28;20126;-66
2022/10/22 12:39:47;;;;;;;10.18;6.03;;;;;;;23.00;29.75;100224.94;3091859;28;20058;-65
2022/10/22 12:41:22;;;;;;;17.15;5.40;;;;;;;23.01;30.14;100221.28;3091567;28;20058;-66
2022/10/22 12:42:56;;;;;;;24.70;7.22;;;;;;;23.03;29.80;100216.69;3091597;28;20061;-66
2022/10/22 12:44:28;;;;;;;12.35;5.95;;;;;;;23.01;30.01;100216.84;3091109;28;20459;-66
2022/10/22 12:46:00;;;;;;;13.93;6.68;;;;;;;22.99;29.83;100207.34;3091339;28;20084;-65
2022/10/22 12:47:32;;;;;;;10.45;6.60;;;;;;;22.93;29.64;100201.56;3091544;28;20423;-65
2022/10/22 12:49:08;;;;;;;15.32;6.60;;;;;;;22.93;29.38;100206.03;3091770;28;20057;-66
2022/10/22 12:50:44;;;;;;;15.10;6.65;;;;;;;22.92;29.48;100204.34;3091246;28;20085;-67
2022/10/22 12:52:22;;;;;;;12.98;5.95;;;;;;;22.94;29.68;100205.91;3091423;28;20158;-67
2022/10/22 12:53:57;;;;;;;9.02;5.55;;;;;;;22.94;29.59;100203.25;3091545;28;20050;-66
2022/10/22 12:55:33;;;;;;;13.73;6.15;;;;;;;23.01;29.75;100203.56;3091741;28;20049;-66
2022/10/22 12:57:05;;;;;;;10.77;6.30;;;;;;;22.97;29.75;100199.50;3088696;28;20046;-66
2022/10/22 12:58:41;;;;;;;12.18;5.95;;;;;;;22.96;29.58;100197.00;3091566;28;20149;-65
2022/10/22 13:00:22;;;;;;;14.20;5.85;;;;;;;22.90;29.50;100201.00;3091487;28;20062;-66
2022/10/22 13:01:55;;;;;;;13.82;6.03;;;;;;;22.86;29.51;100195.09;3090273;28;20137;-64
2022/10/22 13:03:30;;;;;;;13.45;6.00;;;;;;;22.82;29.50;100191.06;3091696;28;20570;-65
2022/10/22 13:05:39;;;;;;;10.00;5.93;;;;;;;22.78;29.73;100189.69;3078681;28;20050;-66
2022/10/22 13:07:53;;;;;;;9.43;6.40;;;;;;;22.64;29.64;100198.03;3077862;28;20047;-67
2022/10/22 13:09:44;;;;;;;9.30;5.85;;;;;;;22.54;29.70;100199.81;3079443;28;20146;-66
2022/10/22 13:11:21;;;;;;;10.73;5.97;;;;;;;22.50;29.79;100196.59;3078629;28;20066;-64
2022/10/22 13:13:29;;;;;;;14.98;6.45;;;;;;;22.55;29.68;100205.00;3080128;28;20694;-63
2022/10/22 13:15:20;;;;;;;11.85;6.00;;;;;;;22.60;30.06;100199.28;3083341;28;20050;-64
2022/10/22 13:17:08;;;;;;;10.95;5.85;;;;;;;22.59;29.92;100181.66;3083498;28;20047;-65
2022/10/22 13:18:40;;;;;;;13.25;6.72;;;;;;;22.59;29.90;100187.81;3083745;28;20055;-63
2022/10/22 13:20:18;;;;;;;12.45;5.57;;;;;;;22.64;29.67;100187.41;3084424;28;20105;-64
2022/10/22 13:21:52;;;;;;;15.32;6.30;;;;;;;22.69;29.80;100191.34;3084261;28;20054;-65
2022/10/22 13:23:26;;;;;;;9.10;5.65;;;;;;;22.77;29.62;100189.78;3081353;28;20086;-64
2022/10/22 13:25:00;;;;;;;12.07;6.95;;;;;;;22.78;30.00;100187.03;3084025;28;20137;-66
2022/10/22 13:26:33;;;;;;;;;;;;;;;22.75;30.02;100195.25;3084731;28;20054;-66
2022/10/22 13:28:18;;;;;;;14.52;6.57;;;;;;;;;;3084318;28;19922;-68
2022/10/22 13:29:50;;;;;;;15.35;7.10;;;;;;;22.58;30.01;100185.31;3079304;28;20051;-66
2022/10/22 13:31:25;;;;;;;14.93;5.93;;;;;;;22.59;30.12;100194.94;3076483;28;20047;-69
2022/10/22 13:32:59;;;;;;;11.77;6.47;;;;;;;22.60;30.23;100186.03;3084290;28;20050;-70
2022/10/22 13:34:30;;;;;;;12.77;6.13;;;;;;;22.71;29.69;100192.03;3083950;28;20126;-67
2022/10/22 13:36:03;;;;;;;16.63;6.15;;;;;;;22.73;29.72;100183.94;3084306;28;20455;-69
2022/10/22 13:37:34;;;;;;;13.18;6.20;;;;;;;22.70;29.76;100177.06;3084129;28;20075;-67
2022/10/22 13:39:13;;;;;;;12.27;6.72;;;;;;;22.74;29.89;100177.63;3084250;28;20140;-69
2022/10/22 13:40:45;;;;;;;12.60;6.00;;;;;;;22.71;30.00;100177.91;3084079;28;20046;-71
2022/10/22 13:42:17;;;;;;;30.52;7.28;;;;;;;22.68;29.97;100172.88;3084372;28;20051;-68
2022/10/22 13:43:49;;;;;;;10.80;6.05;;;;;;;22.64;30.19;100172.31;3084648;28;20046;-69
2022/10/22 13:45:21;;;;;;;12.57;7.13;;;;;;;22.55;30.10;100178.47;3084242;28;20491;-66
2022/10/22 13:46:52;;;;;;;16.00;6.60;;;;;;;22.47;30.28;100175.63;3085258;28;20042;-67
2022/10/22 13:48:26;;;;;;;21.52;6.53;;;;;;;22.43;30.04;100179.56;3084218;28;20579;-66
2022/10/22 13:50:02;;;;;;;19.35;7.88;;;;;;;22.31;30.08;100176.19;3083358;28;20050;-67
2022/10/22 13:51:35;;;;;;;131.63;79.15;;;;;;;22.31;30.59;100178.00;3083635;28;20055;-68
2022/10/22 13:53:16;;;;;;;218.70;123.95;;;;;;;22.29;30.53;100183.41;3083113;28;20056;-66
2022/10/22 13:54:49;;;;;;;39.53;21.58;;;;;;;22.28;30.70;100176.44;3083027;28;20054;-69
2022/10/22 13:56:22;;;;;;;16.88;10.40;;;;;;;22.16;30.80;100169.53;3083178;28;20046;-71
2022/10/22 13:57:57;;;;;;;13.07;7.43;;;;;;;22.19;30.31;100166.66;3083306;28;20481;-73
2022/10/22 13:59:29;;;;;;;22.15;7.43;;;;;;;22.14;30.61;100168.81;3083002;28;20051;-74
2022/10/22 14:01:01;;;;;;;20.73;7.35;;;;;;;22.12;30.87;100165.47;3082920;28;20046;-72
2022/10/22 14:02:33;;;;;;;11.93;6.55;;;;;;;22.11;30.93;100159.31;3082162;28;20086;-73
2022/10/22 14:04:08;;;;;;;12.23;6.97;;;;;;;22.07;30.94;100154.44;3087795;28;20535;-75
2022/10/22 14:05:40;;;;;;;13.07;5.65;;;;;;;22.06;30.84;100153.56;3095075;28;20058;-74
2022/10/22 14:07:13;;;;;;;11.25;5.97;;;;;;;22.02;30.50;100154.81;3094013;28;20127;-68
2022/10/22 14:08:49;;;;;;;12.77;6.18;;;;;;;22.00;30.72;100156.75;3094586;28;20105;-69
2022/10/22 14:10:24;;;;;;;14.55;5.95;;;;;;;21.98;30.60;100158.72;3095214;28;20050;-70
2022/10/22 14:11:56;;;;;;;8.98;5.70;;;;;;;21.93;30.61;100140.56;3095005;28;20053;-77
2022/10/22 14:13:28;;;;;;;14.68;5.85;;;;;;;21.92;30.55;100146.00;3094272;28;20054;-71
2022/10/22 14:15:00;;;;;;;15.02;5.60;;;;;;;21.86;30.63;100144.72;3094540;28;20058;-70
2022/10/22 14:16:33;;;;;;;8.60;5.68;;;;;;;21.83;30.81;100152.94;3095071;28;20587;-69
2022/10/22 14:18:07;;;;;;;9.85;5.80;;;;;;;21.75;30.94;100142.16;3094918;28;20050;-69
2022/10/22 14:19:39;;;;;;;13.15;6.03;;;;;;;21.74;30.89;100151.06;3094805;28;20121;-70
2022/10/22 14:21:13;;;;;;;14.82;5.60;;;;;;;21.70;30.96;100144.34;3094533;28;20465;-70
2022/10/22 14:25:15;;;;;;;17.73;5.68;;;;;;;21.62;31.41;100146.81;3084116;28;20062;-70
2022/10/22 14:26:48;;;;;;;13.35;5.95;;;;;;;21.66;31.21;100140.31;3093565;28;20390;-70
2022/10/22 14:28:20;;;;;;;11.68;5.90;;;;;;;21.66;31.55;100149.09;3094682;28;20503;-70
2022/10/22 14:29:52;;;;;;;13.68;6.07;;;;;;;21.67;31.28;100155.22;3094927;28;20060;-70
2022/10/22 14:31:24;;;;;;;12.85;6.20;;;;;;;21.65;31.40;100142.13;3095389;28;20046;-70
2022/10/22 14:32:58;;;;;;;10.15;5.47;;;;;;;21.67;31.34;100145.47;3094492;28;20079;-70